Lilly, PA (15938)

02:25 PM EST del 16 Gennaio 2017 (GMT -0500)
Brookside, Beaverdale | | Change Station

Alt. 1923 ft 40.32 °N, 78.70 °W | Updated 12 minutes ago

Coperto
Coperto
39.2 °F
Sembra 37 °F
N
3.2
Vento Variabile Vento da NO

Oggi
Massima -- | Minima -- °F
--% Possibilità di precip.
Ieri
Massima -- | Minima -- °F
Precip. -- in
Pressione 30.30 in
Visibilità 10.0 miglia
Nuvole Molto nuvoloso 5000 ft
Coperto 9000 ft
Raffreddamento del vento 37 °F
Punto di rugiada 32 °F
Umidità 76%
Piovosità 0.01 in
Spessore del manto nevoso Non disponibile.
7:35 AM 5:14 PM
Gobba a levante, 79% visible
METAR KJST 161854Z AUTO 19003KT 10SM BKN050 OVC090 03/01 A3022 RMK AO2 SLP259 T00330006 TSNO
Pressione 30.30 in
Visibilità 10.0 miglia
Nuvole Molto nuvoloso 5000 ft
Coperto 9000 ft
Raffreddamento del vento 37 °F
Punto di rugiada 32 °F
Umidità 76%
Piovosità 0.01 in
Spessore del manto nevoso Non disponibile.
7:35 AM 5:14 PM
Gobba a levante, 79% visible
METAR KJST 161854Z AUTO 19003KT 10SM BKN050 OVC090 03/01 A3022 RMK AO2 SLP259 T00330006 TSNO

Get Your Daily Forecast Email!

Thanks for signing up!

Be on the lookout for a verification email in your inbox.

You'll start receiving the daily forecast at 8 AM.

×

10-Day Weather Forecast

Almanac

Astronomia

Jan. 16, 2017 Alba Tramonto
Ora attuale
Crepuscolo civile
Crepuscolo nautico
Crepuscolo astronomico
Luna
Estensione della luce visibile
Lunghezza del giorno
Tomorrow will be .
, % of the Moon is Illuminated

Gli estremi di oggi

State Highs State Lows

Community

WunderPhotos

Upload Photos

1,962,540 foto caricate!

WunderBlog® & News

Nearby

Qualità dell'aria

  Qualità dell'aria Indice AQ Inquinante
Not available.

Profondità neve

Stazione Profondità Altitudine

Attività sismica

Città  Distanza Mag. Data & Ora
Minimo Magnitudo Mostrato è 2.5.

Temperature delle acque costiere

Località Temperatura

Stations

Stazioni meteo nelle vicinanze

Ubicazione della stazione Temp. Raffreddamento del vento Punto di rugiada Umidità Vento Precip. Alt. Aggiornato Tipo
                   

Watches & Warnings

There are currently no watches in effect.